createdAt,value
2018-11-23T00:02:02.611Z,47.33
2018-11-23T00:04:32.280Z,45.40
2018-11-23T00:07:01.845Z,50.50
2018-11-23T00:09:31.423Z,49.37
2018-11-23T00:12:01.133Z,46.90
2018-11-23T00:14:31.051Z,47.83
2018-11-23T00:17:00.607Z,47.17
2018-11-23T00:19:30.302Z,50.03
2018-11-23T00:21:59.871Z,48.93
2018-11-23T00:24:29.440Z,48.63
2018-11-23T00:26:59.073Z,49.73
2018-11-23T00:29:28.680Z,49.47
2018-11-23T00:31:58.250Z,47.50
2018-11-23T00:34:27.842Z,49.33
2018-11-23T00:36:57.393Z,48.80
2018-11-23T00:39:27.589Z,48.10
2018-11-23T00:41:57.136Z,48.53
2018-11-23T00:44:26.731Z,47.23
2018-11-23T00:46:56.441Z,47.47
2018-11-23T00:49:26.048Z,47.23
2018-11-23T00:51:55.618Z,51.60
2018-11-23T00:54:25.301Z,48.67
2018-11-23T00:56:54.846Z,49.70
2018-11-23T00:59:24.397Z,47.60
2018-11-23T01:01:58.021Z,47.87
2018-11-23T01:04:27.603Z,47.23
2018-11-23T01:06:57.275Z,45.67
2018-11-23T01:09:26.803Z,47.00
2018-11-23T01:11:56.492Z,45.37
2018-11-23T01:14:26.495Z,47.17
2018-11-23T01:16:56.051Z,44.77
2018-11-23T01:19:25.632Z,45.23
2018-11-23T01:21:55.313Z,43.63
2018-11-23T01:24:24.941Z,44.67
2018-11-23T01:26:54.501Z,44.37
2018-11-23T01:29:24.146Z,44.50
2018-11-23T01:31:53.847Z,40.97
2018-11-23T01:34:23.392Z,46.13
2018-11-23T01:36:52.976Z,45.20
2018-11-23T01:39:22.582Z,46.67
2018-11-23T01:41:52.136Z,44.40
2018-11-23T01:44:21.762Z,45.50
2018-11-23T01:46:51.578Z,44.80
2018-11-23T01:49:21.282Z,47.43
2018-11-23T01:51:51.002Z,44.67
2018-11-23T01:54:21.201Z,45.17
2018-11-23T01:56:50.929Z,43.33
2018-11-23T01:59:20.628Z,44.37
2018-11-23T02:01:50.348Z,45.17
2018-11-23T02:04:19.916Z,45.50
2018-11-23T02:06:49.467Z,47.73
2018-11-23T02:09:19.196Z,46.93
2018-11-23T02:11:48.757Z,47.60
2018-11-23T02:14:18.350Z,45.57
2018-11-23T02:16:47.977Z,46.70
2018-11-23T02:19:17.570Z,45.73
2018-11-23T02:21:47.102Z,46.00
2018-11-23T02:24:16.680Z,45.80
2018-11-23T02:26:46.401Z,47.67
2018-11-23T02:29:15.942Z,47.03
2018-11-23T02:31:45.455Z,46.17
2018-11-23T02:34:15.106Z,48.43
2018-11-23T02:36:44.750Z,48.40
2018-11-23T02:39:18.318Z,48.00
2018-11-23T02:41:47.898Z,51.37
2018-11-23T02:44:17.423Z,46.37
2018-11-23T02:46:47.050Z,47.40
2018-11-23T02:49:16.650Z,50.13
2018-11-23T02:51:46.243Z,49.97
2018-11-23T02:54:15.947Z,49.13
2018-11-23T02:56:46.846Z,47.63
2018-11-23T02:59:16.530Z,49.03
2018-11-23T03:01:46.122Z,48.83
2018-11-23T03:04:15.683Z,46.77
2018-11-23T03:06:51.662Z,53.27
2018-11-23T03:09:21.269Z,50.83
2018-11-23T03:11:50.897Z,47.77
2018-11-23T03:14:20.463Z,48.50
2018-11-23T03:16:50.010Z,50.90
2018-11-23T03:19:19.680Z,49.43
2018-11-23T03:21:49.233Z,50.53
2018-11-23T03:24:18.794Z,52.50
2018-11-23T03:26:48.508Z,50.87
2018-11-23T03:29:18.051Z,52.13
2018-11-23T03:31:47.610Z,53.07
2018-11-23T03:34:17.214Z,55.33
2018-11-23T03:36:46.928Z,49.03
2018-11-23T03:39:16.537Z,49.40
2018-11-23T03:41:46.248Z,52.77
2018-11-23T03:44:15.951Z,54.67
2018-11-23T03:46:45.551Z,55.97
2018-11-23T03:49:15.154Z,53.30
2018-11-23T03:51:44.864Z,54.43
2018-11-23T03:54:14.437Z,54.17
2018-11-23T03:56:44.044Z,53.07
2018-11-23T03:59:13.574Z,55.67
2018-11-23T04:01:43.206Z,55.77
2018-11-23T04:04:13.310Z,57.50
2018-11-23T04:06:43.113Z,59.40
2018-11-23T04:09:12.710Z,55.40
2018-11-23T04:11:42.322Z,59.17
2018-11-23T04:14:11.931Z,57.10
2018-11-23T04:16:41.548Z,57.63
2018-11-23T04:19:11.161Z,56.40
2018-11-23T04:21:40.704Z,56.47
2018-11-23T04:24:10.362Z,56.70
2018-11-23T04:26:40.013Z,59.87
2018-11-23T04:29:09.562Z,58.07
2018-11-23T04:31:39.084Z,57.03
2018-11-23T04:34:08.751Z,57.87
2018-11-23T04:36:38.327Z,55.73
2018-11-23T04:39:09.407Z,54.90
2018-11-23T04:41:46.023Z,60.40
2018-11-23T04:44:08.874Z,61.33
2018-11-23T04:46:38.523Z,60.93
2018-11-23T04:49:08.352Z,58.33
2018-11-23T04:51:37.921Z,58.27
2018-11-23T04:54:07.679Z,59.63
2018-11-23T04:56:37.226Z,54.73
2018-11-23T04:59:07.383Z,59.07
2018-11-23T05:01:37.320Z,57.97
2018-11-23T05:04:06.902Z,58.67
2018-11-23T05:06:36.498Z,57.27
2018-11-23T05:09:09.227Z,58.00
2018-11-23T05:11:39.311Z,60.20
2018-11-23T05:14:09.020Z,62.63
2018-11-23T05:16:38.828Z,56.97
2018-11-23T05:19:08.461Z,59.67
2018-11-23T05:21:38.033Z,59.17
2018-11-23T05:24:07.687Z,57.90
2018-11-23T05:26:37.301Z,59.90
2018-11-23T05:29:07.354Z,61.13
2018-11-23T05:31:36.930Z,58.33
2018-11-23T05:34:06.596Z,59.13
2018-11-23T05:36:36.263Z,58.37
2018-11-23T05:39:09.002Z,59.37
2018-11-23T05:41:38.783Z,58.87
2018-11-23T05:44:08.385Z,59.97
2018-11-23T05:46:38.062Z,56.67
2018-11-23T05:49:07.710Z,59.27
2018-11-23T05:51:37.421Z,59.10
2018-11-23T05:54:07.412Z,61.50
2018-11-23T05:56:37.015Z,60.50
2018-11-23T05:59:07.142Z,65.37
2018-11-23T06:01:36.798Z,58.07
2018-11-23T06:04:06.504Z,60.30
2018-11-23T06:06:42.204Z,60.10
2018-11-23T06:09:07.825Z,58.87
2018-11-23T06:11:37.729Z,60.10
2018-11-23T06:14:07.451Z,60.20
2018-11-23T06:16:37.158Z,58.07
2018-11-23T06:19:06.903Z,61.00
2018-11-23T06:21:36.513Z,59.43
2018-11-23T06:24:06.561Z,59.83
2018-11-23T06:26:36.797Z,55.93
2018-11-23T06:29:06.599Z,59.27
2018-11-23T06:31:36.312Z,65.60
2018-11-23T06:34:05.912Z,59.83
2018-11-23T06:36:35.526Z,57.23
2018-11-23T06:39:06.984Z,58.30
2018-11-23T06:41:37.000Z,55.07
2018-11-23T06:44:07.135Z,53.20
2018-11-23T06:46:36.816Z,57.10
2018-11-23T06:49:06.545Z,56.40
2018-11-23T06:51:36.335Z,56.77
2018-11-23T06:54:06.003Z,57.03
2018-11-23T06:56:35.640Z,54.83
2018-11-23T06:59:05.633Z,57.97
2018-11-23T07:01:35.196Z,57.73
2018-11-23T07:04:04.754Z,57.37
2018-11-23T07:06:34.565Z,62.60
2018-11-23T07:09:05.270Z,59.57
2018-11-23T07:11:34.965Z,57.70
2018-11-23T07:14:05.042Z,59.03
2018-11-23T07:16:34.708Z,55.40
2018-11-23T07:19:04.366Z,57.83
2018-11-23T07:21:33.982Z,58.63
2018-11-23T07:24:03.665Z,57.87
2018-11-23T07:26:33.222Z,58.57
2018-11-23T07:29:04.936Z,59.33
2018-11-23T07:31:34.650Z,58.60
2018-11-23T07:34:04.235Z,57.70
2018-11-23T07:36:33.813Z,60.13
2018-11-23T07:39:19.117Z,61.87
2018-11-23T07:42:02.038Z,62.67
2018-11-23T07:44:31.747Z,63.37
2018-11-23T07:47:01.417Z,61.47
2018-11-23T07:49:31.080Z,59.90
2018-11-23T07:52:00.777Z,60.83
2018-11-23T07:54:30.479Z,60.80
2018-11-23T07:57:00.291Z,63.77
2018-11-23T07:59:29.989Z,62.67
2018-11-23T08:01:59.697Z,68.03
2018-11-23T08:04:29.214Z,67.17
2018-11-23T08:06:59.020Z,68.03
2018-11-23T08:09:28.619Z,64.10
2018-11-23T08:11:58.438Z,65.23
2018-11-23T08:14:28.122Z,64.97
2018-11-23T08:16:57.683Z,63.33
2018-11-23T08:19:27.424Z,62.20
2018-11-23T08:21:57.061Z,78.28
2018-11-23T08:24:27.220Z,81.63
2018-11-23T08:26:56.470Z,67.77
2018-11-23T08:29:26.081Z,66.47
2018-11-23T08:31:55.697Z,63.07
2018-11-23T08:34:25.239Z,65.37
2018-11-23T08:36:55.201Z,62.77
2018-11-23T08:39:25.438Z,63.63
2018-11-23T08:41:55.188Z,66.63
2018-11-23T08:44:24.850Z,67.13
2018-11-23T08:46:54.538Z,67.57
2018-11-23T08:49:24.227Z,66.27
2018-11-23T08:51:53.860Z,66.00
2018-11-23T08:54:23.475Z,62.40
2018-11-23T08:56:53.177Z,66.97
2018-11-23T08:59:22.885Z,66.70
2018-11-23T09:01:52.487Z,66.33
2018-11-23T09:04:22.096Z,63.27
2018-11-23T09:06:51.678Z,67.63
2018-11-23T09:09:21.221Z,64.87
2018-11-23T09:11:50.901Z,64.03
2018-11-23T09:14:20.526Z,69.77
2018-11-23T09:16:50.064Z,66.50
2018-11-23T09:19:19.731Z,68.60
2018-11-23T09:21:49.342Z,68.63
2018-11-23T09:24:18.894Z,68.63
2018-11-23T09:26:48.459Z,66.57
2018-11-23T09:29:18.140Z,67.90
2018-11-23T09:31:47.662Z,70.93
2018-11-23T09:34:17.205Z,70.53
2018-11-23T09:36:46.822Z,71.83
2018-11-23T09:39:22.987Z,69.77
2018-11-23T09:41:52.837Z,67.20
2018-11-23T09:44:22.624Z,73.17
2018-11-23T09:46:52.354Z,71.17
2018-11-23T09:49:22.264Z,74.17
2018-11-23T09:51:51.703Z,67.90
2018-11-23T09:54:21.316Z,65.57
2018-11-23T09:56:51.132Z,68.70
2018-11-23T09:59:20.812Z,74.27
2018-11-23T10:01:50.467Z,69.53
2018-11-23T10:04:20.136Z,71.37
2018-11-23T10:06:49.711Z,70.30
2018-11-23T10:09:19.270Z,68.13
2018-11-23T10:11:49.027Z,73.90
2018-11-23T10:14:18.632Z,72.07
2018-11-23T10:16:48.206Z,72.03
2018-11-23T10:19:31.368Z,71.33
2018-11-23T10:22:00.966Z,70.63
2018-11-23T10:24:30.535Z,71.37
2018-11-23T10:27:00.139Z,73.20
2018-11-23T10:29:29.790Z,69.03
2018-11-23T10:31:59.372Z,72.83
2018-11-23T10:34:29.018Z,71.07
2018-11-23T10:36:58.553Z,68.13
2018-11-23T10:39:28.317Z,71.40
2018-11-23T10:41:57.903Z,68.87
2018-11-23T10:44:27.519Z,70.53
2018-11-23T10:46:57.041Z,70.93
2018-11-23T10:49:26.648Z,68.73
2018-11-23T10:51:56.247Z,72.00
2018-11-23T10:54:25.840Z,70.80
2018-11-23T10:56:55.456Z,70.73
2018-11-23T10:59:25.157Z,68.90
2018-11-23T11:01:58.829Z,71.73
2018-11-23T11:04:32.453Z,71.70
2018-11-23T11:07:06.139Z,72.00
2018-11-23T11:09:36.158Z,67.37
2018-11-23T11:12:05.827Z,72.37
2018-11-23T11:14:35.576Z,68.57
2018-11-23T11:17:05.180Z,69.23
2018-11-23T11:19:34.749Z,68.03
2018-11-23T11:22:04.509Z,68.27
2018-11-23T11:24:34.120Z,69.80
2018-11-23T11:27:03.729Z,68.90
2018-11-23T11:29:33.426Z,68.27
2018-11-23T11:32:03.072Z,69.50
2018-11-23T11:34:32.651Z,66.63
2018-11-23T11:37:02.535Z,65.77
2018-11-23T11:39:32.101Z,64.07
2018-11-23T11:42:01.749Z,67.43
2018-11-23T11:44:31.351Z,68.77
2018-11-23T11:47:00.952Z,64.70
2018-11-23T11:49:30.506Z,66.50
2018-11-23T11:52:00.080Z,62.07
2018-11-23T11:54:29.804Z,64.00
2018-11-23T11:56:59.463Z,63.20
2018-11-23T11:59:32.079Z,61.73
2018-11-23T12:02:01.692Z,61.27
2018-11-23T12:04:31.287Z,62.43
2018-11-23T12:07:00.899Z,62.13
2018-11-23T12:09:30.520Z,62.83
2018-11-23T12:12:00.108Z,65.67
2018-11-23T12:14:29.817Z,61.53
2018-11-23T12:16:59.413Z,66.10
2018-11-23T12:19:29.136Z,63.20
2018-11-23T12:21:58.699Z,63.43
2018-11-23T12:24:28.293Z,62.73
2018-11-23T12:26:58.011Z,66.37
2018-11-23T12:29:27.616Z,64.00
2018-11-23T12:31:57.741Z,60.43
2018-11-23T12:34:27.411Z,64.73
2018-11-23T12:36:57.027Z,65.90
2018-11-23T12:39:26.689Z,68.83
2018-11-23T12:41:56.290Z,67.43
2018-11-23T12:44:25.880Z,71.17
2018-11-23T12:46:55.506Z,68.47
2018-11-23T12:49:25.270Z,67.20
2018-11-23T12:51:55.436Z,66.40
2018-11-23T12:54:25.253Z,67.43
2018-11-23T12:56:55.193Z,68.60
2018-11-23T12:59:24.871Z,65.87
2018-11-23T13:01:54.694Z,67.57
2018-11-23T13:04:24.391Z,66.17
2018-11-23T13:06:54.924Z,70.17
2018-11-23T13:09:24.917Z,74.73
2018-11-23T13:11:54.720Z,76.40
2018-11-23T13:14:24.820Z,77.53
2018-11-23T13:16:55.702Z,77.50
2018-11-23T13:19:25.618Z,80.87
2018-11-23T13:21:55.328Z,77.03
2018-11-23T13:24:25.232Z,76.93
2018-11-23T13:26:55.056Z,76.60
2018-11-23T13:29:24.757Z,80.63
2018-11-23T13:31:54.588Z,77.00
2018-11-23T13:34:24.257Z,80.67
2018-11-23T13:36:53.899Z,76.63
2018-11-23T13:39:23.688Z,72.93
2018-11-23T13:41:53.396Z,78.13
2018-11-23T13:44:23.210Z,79.70
2018-11-23T13:46:53.125Z,80.80
2018-11-23T13:49:23.036Z,77.47
2018-11-23T13:51:52.766Z,80.13
2018-11-23T13:54:22.531Z,82.47
2018-11-23T13:56:52.506Z,87.47
2018-11-23T13:59:22.163Z,82.23
2018-11-23T14:01:51.750Z,87.67
2018-11-23T14:04:21.407Z,84.80
2018-11-23T14:06:50.941Z,87.87
2018-11-23T14:09:20.591Z,90.73
2018-11-23T14:11:50.237Z,87.57
2018-11-23T14:14:19.901Z,91.60
2018-11-23T14:16:49.470Z,86.83
2018-11-23T14:19:19.117Z,91.00
2018-11-23T14:21:48.759Z,89.10
2018-11-23T14:24:18.340Z,86.20
2018-11-23T14:26:47.953Z,89.57
2018-11-23T14:29:17.550Z,89.23
2018-11-23T14:31:47.254Z,90.37
2018-11-23T14:34:16.955Z,94.93
2018-11-23T14:36:46.556Z,96.57
2018-11-23T14:39:16.287Z,97.43
2018-11-23T14:41:45.874Z,96.63
2018-11-23T14:44:15.471Z,92.80
2018-11-23T14:46:45.118Z,91.70
2018-11-23T14:49:14.727Z,93.40
2018-11-23T14:51:44.402Z,94.77
2018-11-23T14:54:14.221Z,95.33
2018-11-23T14:56:43.848Z,90.50
2018-11-23T14:59:13.435Z,88.60
2018-11-23T15:01:43.085Z,89.93
2018-11-23T15:04:13.729Z,91.33
2018-11-23T15:06:43.357Z,89.83
2018-11-23T15:09:13.177Z,90.40
2018-11-23T15:11:42.746Z,87.47
2018-11-23T15:14:12.319Z,85.83
2018-11-23T15:16:41.968Z,87.90
2018-11-23T15:19:11.645Z,92.43
2018-11-23T15:21:41.332Z,88.20
2018-11-23T15:24:11.124Z,83.00
2018-11-23T15:26:40.758Z,85.87
2018-11-23T15:29:10.428Z,83.67
2018-11-23T15:31:40.961Z,109.10
2018-11-23T15:34:10.579Z,88.40
2018-11-23T15:36:40.221Z,87.17
2018-11-23T15:39:12.436Z,87.90
2018-11-23T15:41:42.088Z,85.33
2018-11-23T15:44:11.707Z,84.27
2018-11-23T15:46:41.335Z,84.03
2018-11-23T15:49:11.069Z,83.10
2018-11-23T15:51:40.782Z,87.63
2018-11-23T15:54:10.392Z,85.77
2018-11-23T15:56:40.092Z,84.33
2018-11-23T15:59:09.702Z,80.83
2018-11-23T16:01:39.270Z,83.37
2018-11-23T16:04:09.170Z,82.07
2018-11-23T16:06:39.015Z,84.77
2018-11-23T16:09:13.259Z,82.70
2018-11-23T16:11:42.961Z,83.40
2018-11-23T16:14:12.596Z,82.93
2018-11-23T16:16:42.267Z,81.07
2018-11-23T16:19:11.974Z,83.07
2018-11-23T16:21:41.581Z,80.03
2018-11-23T16:24:11.697Z,78.17
2018-11-23T16:26:41.375Z,77.00
2018-11-23T16:29:11.112Z,81.67
2018-11-23T16:31:40.719Z,80.80
2018-11-23T16:34:10.436Z,80.27
2018-11-23T16:36:40.176Z,81.27
2018-11-23T16:39:12.409Z,79.80
2018-11-23T16:41:42.211Z,79.97
2018-11-23T16:44:14.988Z,76.63
2018-11-23T16:46:44.671Z,75.93
2018-11-23T16:49:14.412Z,77.43
2018-11-23T16:51:44.122Z,79.13
2018-11-23T16:54:14.951Z,76.97
2018-11-23T16:56:47.733Z,75.93
2018-11-23T16:59:17.436Z,76.40
2018-11-23T17:01:47.151Z,71.50
2018-11-23T17:04:16.843Z,74.07
2018-11-23T17:06:46.560Z,74.63
2018-11-23T17:09:19.267Z,71.17
2018-11-23T17:11:48.926Z,73.33
2018-11-23T17:14:18.663Z,76.40
2018-11-23T17:16:48.310Z,79.93
2018-11-23T17:19:17.971Z,72.00
2018-11-23T17:21:47.683Z,76.30
2018-11-23T17:24:17.494Z,77.03
2018-11-23T17:26:47.202Z,74.50
2018-11-23T17:29:23.031Z,75.00
2018-11-23T17:31:46.482Z,76.07
2018-11-23T17:34:22.451Z,73.73
2018-11-23T17:36:52.378Z,76.93
2018-11-23T17:39:22.046Z,94.00
2018-11-23T17:41:51.797Z,74.37
2018-11-23T17:44:21.512Z,72.67
2018-11-23T17:46:51.151Z,74.77
2018-11-23T17:49:21.123Z,74.47
2018-11-23T17:51:50.839Z,70.73
2018-11-23T17:54:20.444Z,72.10
2018-11-23T17:56:50.067Z,74.17
2018-11-23T17:59:20.061Z,73.47
2018-11-23T18:01:49.989Z,71.87
2018-11-23T18:04:19.878Z,70.37
2018-11-23T18:06:49.807Z,69.13
2018-11-23T18:09:19.496Z,71.60
2018-11-23T18:11:49.121Z,70.53
2018-11-23T18:14:18.817Z,69.53
2018-11-23T18:16:48.455Z,68.87
2018-11-23T18:19:18.343Z,72.20
2018-11-23T18:21:48.361Z,74.00
2018-11-23T18:24:18.026Z,74.57
2018-11-23T18:26:47.963Z,73.50
2018-11-23T18:29:17.604Z,70.40
2018-11-23T18:31:47.240Z,75.17
2018-11-23T18:34:16.902Z,70.77
2018-11-23T18:36:47.748Z,72.80
2018-11-23T18:39:17.941Z,71.10
2018-11-23T18:41:48.506Z,69.40
2018-11-23T18:44:18.353Z,69.70
2018-11-23T18:46:48.069Z,66.77
2018-11-23T18:49:17.718Z,66.67
2018-11-23T18:51:47.416Z,68.43
2018-11-23T18:54:17.069Z,70.37
2018-11-23T18:56:46.722Z,74.10
2018-11-23T18:59:16.406Z,66.70
2018-11-23T19:01:46.219Z,69.33
2018-11-23T19:04:16.821Z,69.40
2018-11-23T19:06:46.578Z,68.47
2018-11-23T19:09:16.198Z,67.73
2018-11-23T19:11:46.377Z,69.00
2018-11-23T19:14:16.456Z,66.97
2018-11-23T19:16:46.532Z,68.17
2018-11-23T19:19:16.146Z,68.83
2018-11-23T19:21:45.955Z,68.73
2018-11-23T19:24:16.316Z,61.60
2018-11-23T19:26:46.504Z,63.43
2018-11-23T19:29:16.515Z,59.57
2018-11-23T19:31:46.176Z,62.80
2018-11-23T19:34:15.955Z,64.13
2018-11-23T19:36:45.663Z,66.63
2018-11-23T19:39:15.307Z,61.13
2018-11-23T19:41:45.672Z,59.53
2018-11-23T19:44:15.369Z,58.73
2018-11-23T19:46:45.845Z,54.33
2018-11-23T19:49:16.357Z,48.67
2018-11-23T19:51:46.068Z,51.50
2018-11-23T19:54:16.573Z,51.87
2018-11-23T19:56:47.922Z,48.73
2018-11-23T19:59:17.627Z,38.50
2018-11-23T20:01:47.279Z,42.77
2018-11-23T20:04:17.043Z,38.20
2018-11-23T20:06:46.748Z,37.03
2018-11-23T20:09:16.461Z,34.07
2018-11-23T20:11:46.153Z,35.70
2018-11-23T20:14:15.848Z,32.57
2018-11-23T20:16:45.497Z,32.43
2018-11-23T20:19:15.169Z,33.53
2018-11-23T20:21:44.828Z,33.17
2018-11-23T20:24:14.586Z,32.13
2018-11-23T20:26:44.185Z,30.87
2018-11-23T20:29:14.023Z,33.93
2018-11-23T20:31:46.742Z,30.40
2018-11-23T20:34:17.575Z,29.10
2018-11-23T20:36:47.698Z,29.40
2018-11-23T20:39:18.162Z,29.40
2018-11-23T20:41:47.791Z,28.67
2018-11-23T20:44:17.492Z,28.30
2018-11-23T20:46:48.213Z,27.40
2018-11-23T20:49:21.006Z,27.03
2018-11-23T20:51:50.749Z,27.23
2018-11-23T20:54:23.486Z,24.67
2018-11-23T20:56:53.136Z,23.27
2018-11-23T20:59:22.912Z,23.47
2018-11-23T21:01:52.566Z,24.50
2018-11-23T21:04:22.222Z,22.13
2018-11-23T21:06:51.926Z,22.17
2018-11-23T21:09:21.642Z,22.73
2018-11-23T21:11:51.227Z,22.77
2018-11-23T21:14:20.949Z,22.67
2018-11-23T21:16:50.593Z,22.60
2018-11-23T21:19:20.365Z,24.17
2018-11-23T21:21:50.182Z,21.67
2018-11-23T21:24:19.995Z,26.67
2018-11-23T21:26:49.655Z,27.90
2018-11-23T21:29:19.393Z,29.90
2018-11-23T21:31:48.976Z,32.30
2018-11-23T21:34:18.758Z,31.50
2018-11-23T21:36:48.436Z,32.10
2018-11-23T21:39:18.231Z,32.73
2018-11-23T21:41:48.923Z,37.93
2018-11-23T21:44:18.661Z,40.93
2018-11-23T21:46:48.276Z,37.80
2018-11-23T21:49:18.095Z,39.83
2018-11-23T21:51:47.797Z,41.73
2018-11-23T21:54:17.467Z,41.20
2018-11-23T21:56:47.222Z,42.90
2018-11-23T21:59:16.933Z,40.07
2018-11-23T22:01:46.844Z,40.33
2018-11-23T22:04:16.546Z,41.40
2018-11-23T22:06:46.237Z,36.37
2018-11-23T22:09:15.886Z,37.70
2018-11-23T22:11:52.229Z,39.33
2018-11-23T22:14:15.597Z,36.60
2018-11-23T22:16:45.351Z,35.57
2018-11-23T22:19:15.116Z,38.43
2018-11-23T22:21:44.774Z,38.87
2018-11-23T22:24:14.387Z,37.70
2018-11-23T22:26:44.027Z,39.73
2018-11-23T22:29:13.717Z,30.73
2018-11-23T22:31:43.536Z,34.23
2018-11-23T22:34:13.275Z,32.53
2018-11-23T22:36:43.224Z,30.93
2018-11-23T22:39:12.868Z,31.70
2018-11-23T22:41:42.836Z,28.87
2018-11-23T22:44:12.496Z,29.40
2018-11-23T22:46:42.304Z,29.50
2018-11-23T22:49:12.006Z,31.10
2018-11-23T22:51:42.232Z,28.40
2018-11-23T22:54:11.942Z,30.53
2018-11-23T22:56:41.843Z,30.80
2018-11-23T22:59:11.746Z,33.90
2018-11-23T23:01:41.482Z,37.47
2018-11-23T23:04:11.238Z,39.33
2018-11-23T23:06:41.035Z,40.23
2018-11-23T23:09:11.156Z,41.67
2018-11-23T23:11:41.023Z,40.63
2018-11-23T23:14:10.721Z,40.37
2018-11-23T23:16:40.329Z,41.47
2018-11-23T23:19:10.018Z,42.23
2018-11-23T23:21:39.659Z,39.83
2018-11-23T23:24:11.774Z,39.53
2018-11-23T23:26:38.945Z,40.97
2018-11-23T23:29:08.565Z,36.70
2018-11-23T23:31:38.171Z,36.47
2018-11-23T23:34:07.994Z,36.43
2018-11-23T23:36:37.591Z,35.63
2018-11-23T23:39:09.106Z,37.37
2018-11-23T23:41:38.735Z,37.30
2018-11-23T23:44:08.386Z,38.60
2018-11-23T23:46:38.007Z,36.63
2018-11-23T23:49:07.743Z,36.43
2018-11-23T23:51:37.351Z,34.97
2018-11-23T23:54:07.503Z,35.57
2018-11-23T23:56:37.116Z,37.17
2018-11-23T23:59:07.204Z,38.30
